createdAt,value
2022-12-11T00:00:20.402Z,88.86
2022-12-11T00:02:50.905Z,88.93
2022-12-11T00:05:21.087Z,88.92
2022-12-11T00:07:51.606Z,88.38
2022-12-11T00:10:21.825Z,88.87
2022-12-11T00:12:51.968Z,88.76
2022-12-11T00:15:22.324Z,88.40
2022-12-11T00:17:52.586Z,88.37
2022-12-11T00:20:22.834Z,88.63
2022-12-11T00:22:53.016Z,89.17
2022-12-11T00:25:23.310Z,89.29
2022-12-11T00:27:53.894Z,89.12
2022-12-11T00:30:24.163Z,89.23
2022-12-11T00:32:54.307Z,89.37
2022-12-11T00:35:24.601Z,89.06
2022-12-11T00:37:55.206Z,89.50
2022-12-11T00:40:25.835Z,89.90
2022-12-11T00:42:56.160Z,89.76
2022-12-11T00:45:26.516Z,89.82
2022-12-11T00:47:56.973Z,90.04
2022-12-11T00:50:27.200Z,90.37
2022-12-11T00:52:56.678Z,89.39
2022-12-11T00:55:26.695Z,90.45
2022-12-11T00:57:57.433Z,90.73
2022-12-11T01:00:27.643Z,90.82
2022-12-11T01:02:57.996Z,90.19
2022-12-11T01:05:28.252Z,90.62
2022-12-11T01:07:58.729Z,90.45
2022-12-11T01:10:29.102Z,89.86
2022-12-11T01:13:08.605Z,90.11
2022-12-11T01:15:46.942Z,90.74
2022-12-11T01:18:17.346Z,90.78
2022-12-11T01:20:47.528Z,90.69
2022-12-11T01:23:17.823Z,91.07
2022-12-11T01:25:48.049Z,90.92
2022-12-11T01:28:19.494Z,90.80
2022-12-11T01:30:49.665Z,91.24
2022-12-11T01:33:19.643Z,91.04
2022-12-11T01:35:49.780Z,90.81
2022-12-11T01:38:19.680Z,90.80
2022-12-11T01:40:50.419Z,91.25
2022-12-11T01:43:21.222Z,91.34
2022-12-11T01:45:51.555Z,91.52
2022-12-11T01:48:28.418Z,91.20
2022-12-11T01:51:02.758Z,91.12
2022-12-11T01:53:39.867Z,90.46
2022-12-11T01:56:10.443Z,90.68
2022-12-11T01:59:03.981Z,90.21
2022-12-11T02:02:02.592Z,89.68
2022-12-11T02:04:34.626Z,89.93
2022-12-11T02:07:05.232Z,89.85
2022-12-11T02:09:39.216Z,90.03
2022-12-11T02:12:22.834Z,90.22
2022-12-11T02:15:15.596Z,90.36
2022-12-11T02:18:06.326Z,90.01
2022-12-11T02:20:40.205Z,90.11
2022-12-11T02:23:45.735Z,89.73
2022-12-11T02:26:45.702Z,89.88
2022-12-11T02:29:34.896Z,90.20
2022-12-11T02:32:15.611Z,89.78
2022-12-11T02:34:53.923Z,89.67
2022-12-11T02:37:28.154Z,89.77
2022-12-11T02:39:59.378Z,89.80
2022-12-11T02:42:33.029Z,89.82
2022-12-11T02:45:05.135Z,89.64
2022-12-11T02:47:35.995Z,89.82
2022-12-11T02:50:13.805Z,89.77
2022-12-11T02:52:44.789Z,89.63
2022-12-11T02:55:18.069Z,89.27
2022-12-11T02:57:54.050Z,89.71
2022-12-11T03:00:24.630Z,89.50
2022-12-11T03:02:55.007Z,89.37
2022-12-11T03:05:25.546Z,89.65
2022-12-11T03:07:55.934Z,89.60
2022-12-11T03:10:26.519Z,89.75
2022-12-11T03:12:59.832Z,89.74
2022-12-11T03:16:12.561Z,89.76
2022-12-11T03:19:09.127Z,89.88
2022-12-11T03:22:01.754Z,90.13
2022-12-11T03:24:55.719Z,90.22
2022-12-11T03:27:55.034Z,90.20
2022-12-11T03:30:27.177Z,90.53
2022-12-11T03:33:00.291Z,90.35
2022-12-11T03:35:51.600Z,90.60
2022-12-11T03:38:54.228Z,90.43
2022-12-11T03:41:28.155Z,90.06
2022-12-11T03:44:00.413Z,90.51
2022-12-11T03:46:35.122Z,90.56
2022-12-11T03:49:09.666Z,90.71
2022-12-11T03:51:40.569Z,90.77
2022-12-11T03:54:12.348Z,90.83
2022-12-11T03:56:44.802Z,90.87
2022-12-11T03:59:14.990Z,90.79
2022-12-11T04:01:45.307Z,90.91
2022-12-11T04:04:15.648Z,91.25
2022-12-11T04:06:45.928Z,91.27
2022-12-11T04:09:16.112Z,91.43
2022-12-11T04:11:46.436Z,91.35
2022-12-11T04:14:34.872Z,91.36
2022-12-11T04:17:05.563Z,91.32
2022-12-11T04:19:53.705Z,91.47
2022-12-11T04:22:41.953Z,91.78
2022-12-11T04:25:12.560Z,91.65
2022-12-11T04:27:51.807Z,91.95
2022-12-11T04:30:28.051Z,91.68
2022-12-11T04:33:01.223Z,91.99
2022-12-11T04:35:31.473Z,91.86
2022-12-11T04:38:02.549Z,91.90
2022-12-11T04:40:32.790Z,91.99
2022-12-11T04:43:02.280Z,91.21
2022-12-11T04:45:32.221Z,92.15
2022-12-11T04:48:02.513Z,92.15
2022-12-11T04:50:32.722Z,92.12
2022-12-11T04:53:03.005Z,91.80
2022-12-11T04:55:33.248Z,91.85
2022-12-11T04:58:03.261Z,92.01
2022-12-11T05:00:33.501Z,92.10
2022-12-11T05:03:03.799Z,91.89
2022-12-11T05:05:34.133Z,92.10
2022-12-11T05:08:04.536Z,92.16
2022-12-11T05:10:34.848Z,92.71
2022-12-11T05:13:05.133Z,92.47
2022-12-11T05:15:34.606Z,91.63
2022-12-11T05:18:04.521Z,92.42
2022-12-11T05:20:35.253Z,92.50
2022-12-11T05:23:05.536Z,92.82
2022-12-11T05:25:35.837Z,92.64
2022-12-11T05:28:06.155Z,92.63
2022-12-11T05:30:36.488Z,92.72
2022-12-11T05:33:06.688Z,92.84
2022-12-11T05:35:36.723Z,93.00
2022-12-11T05:38:06.899Z,92.95
2022-12-11T05:40:36.960Z,92.95
2022-12-11T05:43:07.225Z,92.85
2022-12-11T05:45:37.654Z,92.86
2022-12-11T05:48:08.158Z,93.02
2022-12-11T05:50:38.973Z,93.15
2022-12-11T05:53:10.254Z,93.21
2022-12-11T05:55:40.460Z,93.36
2022-12-11T05:58:10.627Z,93.29
2022-12-11T06:00:43.957Z,93.30
2022-12-11T06:03:14.492Z,93.62
2022-12-11T06:05:45.343Z,93.67
2022-12-11T06:08:15.599Z,93.60
2022-12-11T06:10:49.739Z,93.52
2022-12-11T06:13:20.763Z,93.44
2022-12-11T06:15:50.865Z,93.59
2022-12-11T06:18:21.168Z,93.47
2022-12-11T06:20:51.738Z,93.45
2022-12-11T06:23:22.428Z,93.30
2022-12-11T06:25:52.630Z,93.53
2022-12-11T06:28:22.859Z,93.57
2022-12-11T06:30:53.920Z,93.77
2022-12-11T06:33:24.201Z,93.73
2022-12-11T06:35:54.765Z,93.95
2022-12-11T06:38:25.844Z,94.29
2022-12-11T06:41:00.750Z,94.12
2022-12-11T06:43:30.874Z,94.02
2022-12-11T06:46:03.806Z,93.28
2022-12-11T06:48:35.225Z,94.03
2022-12-11T06:51:14.438Z,94.27
2022-12-11T06:53:45.447Z,94.36
2022-12-11T06:56:16.977Z,94.46
2022-12-11T06:58:47.252Z,94.38
2022-12-11T07:01:26.012Z,94.51
2022-12-11T07:03:58.057Z,94.47
2022-12-11T07:06:29.982Z,94.61
2022-12-11T07:09:00.279Z,94.72
2022-12-11T07:11:30.710Z,94.58
2022-12-11T07:14:04.925Z,94.94
2022-12-11T07:16:35.433Z,94.86
2022-12-11T07:19:05.941Z,94.71
2022-12-11T07:21:39.606Z,94.91
2022-12-11T07:24:10.443Z,94.95
2022-12-11T07:26:40.804Z,94.81
2022-12-11T07:29:11.039Z,94.73
2022-12-11T07:31:41.422Z,94.99
2022-12-11T07:34:15.382Z,95.08
2022-12-11T07:36:45.701Z,95.09
2022-12-11T07:39:16.156Z,95.38
2022-12-11T07:41:48.254Z,95.48
2022-12-11T07:44:20.300Z,95.35
2022-12-11T07:46:50.666Z,95.61
2022-12-11T07:49:20.885Z,95.63
2022-12-11T07:51:51.138Z,95.82
2022-12-11T07:54:22.288Z,95.84
2022-12-11T07:56:53.854Z,95.81
2022-12-11T07:59:24.595Z,95.77
2022-12-11T08:02:37.437Z,95.85
2022-12-11T08:05:08.795Z,96.27
2022-12-11T08:07:39.294Z,96.37
2022-12-11T08:10:09.884Z,96.43
2022-12-11T08:12:40.186Z,96.35
2022-12-11T08:15:11.305Z,96.34
2022-12-11T08:17:42.520Z,96.43
2022-12-11T08:20:12.786Z,96.20
2022-12-11T08:22:43.255Z,96.23
2022-12-11T08:25:13.701Z,96.35
2022-12-11T08:27:44.149Z,96.30
2022-12-11T08:30:15.010Z,96.19
2022-12-11T08:32:45.323Z,96.04
2022-12-11T08:35:15.953Z,96.07
2022-12-11T08:37:46.458Z,96.11
2022-12-11T08:40:16.823Z,95.73
2022-12-11T08:42:47.409Z,95.46
2022-12-11T08:45:17.749Z,95.43
2022-12-11T08:47:47.450Z,94.72
2022-12-11T08:50:17.360Z,95.39
2022-12-11T08:52:47.865Z,95.21
2022-12-11T08:55:18.506Z,95.37
2022-12-11T08:57:49.031Z,95.39
2022-12-11T09:00:19.964Z,95.19
2022-12-11T09:02:50.754Z,94.97
2022-12-11T09:05:20.961Z,94.44
2022-12-11T09:07:51.379Z,94.23
2022-12-11T09:10:21.817Z,94.16
2022-12-11T09:12:52.015Z,93.58
2022-12-11T09:15:22.273Z,93.90
2022-12-11T09:17:52.656Z,93.81
2022-12-11T09:20:23.126Z,93.19
2022-12-11T09:22:53.672Z,93.23
2022-12-11T09:25:23.973Z,93.33
2022-12-11T09:27:54.498Z,93.75
2022-12-11T09:30:24.514Z,93.58
2022-12-11T09:32:54.963Z,93.70
2022-12-11T09:35:25.204Z,93.64
2022-12-11T09:37:54.820Z,93.24
2022-12-11T09:40:25.056Z,93.55
2022-12-11T09:43:45.704Z,93.29
2022-12-11T09:46:18.241Z,93.51
2022-12-11T09:48:50.888Z,93.68
2022-12-11T09:51:26.981Z,93.41
2022-12-11T09:54:03.203Z,93.47
2022-12-11T09:56:47.471Z,93.19
2022-12-11T10:00:06.125Z,92.81
2022-12-11T10:03:02.293Z,92.67
2022-12-11T10:05:57.330Z,92.74
2022-12-11T10:08:51.341Z,92.65
2022-12-11T10:11:42.885Z,92.90
2022-12-11T10:15:03.679Z,91.04
2022-12-11T10:17:38.176Z,91.08
2022-12-11T10:20:24.120Z,90.73
2022-12-11T10:22:56.100Z,90.92
2022-12-11T10:25:44.558Z,90.44
2022-12-11T10:28:20.029Z,90.25
2022-12-11T10:31:22.448Z,89.52
2022-12-11T10:34:09.841Z,89.71
2022-12-11T10:36:42.597Z,89.25
2022-12-11T10:39:20.965Z,89.31
2022-12-11T10:41:53.410Z,89.61
2022-12-11T10:44:26.641Z,88.61
2022-12-11T10:47:15.117Z,88.75
2022-12-11T10:49:57.853Z,88.32
2022-12-11T10:52:36.489Z,87.73
2022-12-11T10:55:29.010Z,87.26
2022-12-11T10:58:05.696Z,86.93
2022-12-11T11:00:43.385Z,86.12
2022-12-11T11:03:35.961Z,85.94
2022-12-11T11:06:20.528Z,84.75
2022-12-11T11:08:56.787Z,85.09
2022-12-11T11:11:28.599Z,85.94
2022-12-11T11:14:18.446Z,85.08
2022-12-11T11:16:54.765Z,83.42
2022-12-11T11:19:36.456Z,82.97
2022-12-11T11:22:16.806Z,82.14
2022-12-11T11:24:57.930Z,82.73
2022-12-11T11:27:33.504Z,83.16
2022-12-11T11:30:09.735Z,83.28
2022-12-11T11:32:42.823Z,84.10
2022-12-11T11:35:13.332Z,83.61
2022-12-11T11:37:48.416Z,82.81
2022-12-11T11:40:38.416Z,83.26
2022-12-11T11:43:38.490Z,83.59
2022-12-11T11:46:19.779Z,81.43
2022-12-11T11:49:07.352Z,82.46
2022-12-11T11:52:11.072Z,81.25
2022-12-11T11:55:10.958Z,80.88
2022-12-11T11:58:04.473Z,79.28
2022-12-11T12:00:35.037Z,79.25
2022-12-11T12:03:26.517Z,79.77
2022-12-11T12:06:26.575Z,79.36
2022-12-11T12:09:27.039Z,79.98
2022-12-11T12:11:57.583Z,80.49
2022-12-11T12:14:53.968Z,80.45
2022-12-11T12:17:56.071Z,79.75
2022-12-11T12:20:46.203Z,80.14
2022-12-11T12:23:55.246Z,79.24
2022-12-11T12:26:30.676Z,78.38
2022-12-11T12:29:09.989Z,78.58
2022-12-11T12:32:13.704Z,79.66
2022-12-11T12:35:26.062Z,79.79
2022-12-11T12:38:17.592Z,79.77
2022-12-11T12:41:15.658Z,79.49
2022-12-11T12:43:51.021Z,78.70
2022-12-11T12:46:26.728Z,77.52
2022-12-11T12:48:59.082Z,77.26
2022-12-11T12:51:30.455Z,75.24
2022-12-11T12:54:10.541Z,74.73
2022-12-11T12:56:44.985Z,75.51
2022-12-11T12:59:26.661Z,74.91
2022-12-11T13:02:02.780Z,75.85
2022-12-11T13:04:55.837Z,72.92
2022-12-11T13:07:32.302Z,71.55
2022-12-11T13:10:04.624Z,74.06
2022-12-11T13:12:47.388Z,74.68
2022-12-11T13:15:35.849Z,74.27
2022-12-11T13:18:08.492Z,75.21
2022-12-11T13:20:53.216Z,74.24
2022-12-11T13:23:35.274Z,74.13
2022-12-11T13:26:06.598Z,75.20
2022-12-11T13:28:39.827Z,73.59
2022-12-11T13:31:16.242Z,74.69
2022-12-11T13:33:50.636Z,75.18
2022-12-11T13:36:36.991Z,72.79
2022-12-11T13:39:19.651Z,73.63
2022-12-11T13:42:17.337Z,71.72
2022-12-11T13:44:50.679Z,69.98
2022-12-11T13:47:22.410Z,67.92
2022-12-11T13:49:58.226Z,71.09
2022-12-11T13:52:30.044Z,70.95
2022-12-11T13:55:03.625Z,71.19
2022-12-11T13:57:33.916Z,71.14
2022-12-11T14:00:04.523Z,69.84
2022-12-11T14:02:43.746Z,69.33
2022-12-11T14:05:16.723Z,68.39
2022-12-11T14:07:59.845Z,68.44
2022-12-11T14:10:34.459Z,69.40
2022-12-11T14:13:08.835Z,68.15
2022-12-11T14:15:40.736Z,68.07
2022-12-11T14:18:19.659Z,66.25
2022-12-11T14:20:56.630Z,67.29
2022-12-11T14:23:36.064Z,65.37
2022-12-11T14:26:17.622Z,66.74
2022-12-11T14:28:48.270Z,66.50
2022-12-11T14:31:46.836Z,66.20
2022-12-11T14:34:22.512Z,66.54
2022-12-11T14:36:53.395Z,64.11
2022-12-11T14:39:49.261Z,64.82
2022-12-11T14:42:25.031Z,66.92
2022-12-11T14:45:23.776Z,66.72
2022-12-11T14:47:56.874Z,64.24
2022-12-11T14:50:48.816Z,64.67
2022-12-11T14:53:33.410Z,64.70
2022-12-11T14:56:16.556Z,63.41
2022-12-11T14:58:56.793Z,62.98
2022-12-11T15:01:33.687Z,62.07
2022-12-11T15:04:08.709Z,62.37
2022-12-11T15:06:50.015Z,62.16
2022-12-11T15:09:21.668Z,62.08
2022-12-11T15:11:53.121Z,59.00
2022-12-11T15:14:25.738Z,61.01
2022-12-11T15:16:59.078Z,61.05
2022-12-11T15:19:37.761Z,59.47
2022-12-11T15:22:10.849Z,57.89
2022-12-11T15:24:44.325Z,60.42
2022-12-11T15:27:40.154Z,60.16
2022-12-11T15:30:28.263Z,60.20
2022-12-11T15:33:13.941Z,59.16
2022-12-11T15:35:56.637Z,58.56
2022-12-11T15:38:36.225Z,57.31
2022-12-11T15:41:08.033Z,57.56
2022-12-11T15:43:39.293Z,58.28
2022-12-11T15:46:09.627Z,55.83
2022-12-11T15:48:39.862Z,56.75
2022-12-11T15:51:11.827Z,55.21
2022-12-11T15:53:42.031Z,58.45
2022-12-11T15:56:18.478Z,56.64
2022-12-11T15:58:50.581Z,58.16
2022-12-11T16:01:21.083Z,55.54
2022-12-11T16:03:51.674Z,57.44
2022-12-11T16:06:22.170Z,56.08
2022-12-11T16:08:52.346Z,55.12
2022-12-11T16:11:22.986Z,54.30
2022-12-11T16:13:53.247Z,53.90
2022-12-11T16:16:23.513Z,56.25
2022-12-11T16:18:53.797Z,54.19
2022-12-11T16:21:24.309Z,54.06
2022-12-11T16:23:54.495Z,55.37
2022-12-11T16:26:24.709Z,53.69
2022-12-11T16:28:54.698Z,52.58
2022-12-11T16:31:25.637Z,55.49
2022-12-11T16:33:55.658Z,54.83
2022-12-11T16:36:26.372Z,55.38
2022-12-11T16:38:56.614Z,56.55
2022-12-11T16:41:27.088Z,53.04
2022-12-11T16:43:57.389Z,53.40
2022-12-11T16:46:27.706Z,55.19
2022-12-11T16:48:58.354Z,56.09
2022-12-11T16:51:28.731Z,54.01
2022-12-11T16:53:59.440Z,55.82
2022-12-11T16:56:30.793Z,55.27
2022-12-11T16:59:02.705Z,53.26
2022-12-11T17:01:33.654Z,53.73
2022-12-11T17:04:04.065Z,53.66
2022-12-11T17:06:34.369Z,52.51
2022-12-11T17:09:04.620Z,53.32
2022-12-11T17:11:35.013Z,52.20
2022-12-11T17:14:05.466Z,52.53
2022-12-11T17:16:35.783Z,51.31
2022-12-11T17:19:08.477Z,54.02
2022-12-11T17:21:38.825Z,51.77
2022-12-11T17:24:09.652Z,53.76
2022-12-11T17:26:39.984Z,50.94
2022-12-11T17:29:11.440Z,53.06
2022-12-11T17:31:42.041Z,52.02
2022-12-11T17:34:12.348Z,50.62
2022-12-11T17:36:42.666Z,51.82
2022-12-11T17:39:12.918Z,51.21
2022-12-11T17:41:44.999Z,51.51
2022-12-11T17:44:15.138Z,52.80
2022-12-11T17:46:45.483Z,52.62
2022-12-11T17:49:15.838Z,52.26
2022-12-11T17:51:46.107Z,52.55
2022-12-11T17:54:16.466Z,51.69
2022-12-11T17:56:46.794Z,52.89
2022-12-11T17:59:17.146Z,51.17
2022-12-11T18:01:48.454Z,51.09
2022-12-11T18:04:18.775Z,50.56
2022-12-11T18:06:49.203Z,50.02
2022-12-11T18:09:19.505Z,51.11
2022-12-11T18:11:52.115Z,51.75
2022-12-11T18:14:22.936Z,50.00
2022-12-11T18:16:54.128Z,50.50
2022-12-11T18:19:24.438Z,49.95
2022-12-11T18:21:56.101Z,50.34
2022-12-11T18:24:32.844Z,49.01
2022-12-11T18:27:03.922Z,49.75
2022-12-11T18:29:34.108Z,49.48
2022-12-11T18:32:04.388Z,49.71
2022-12-11T18:34:34.885Z,49.59
2022-12-11T18:37:05.755Z,49.33
2022-12-11T18:39:36.456Z,50.30
2022-12-11T18:44:57.443Z,50.86
2022-12-11T18:47:27.823Z,51.42
2022-12-11T18:50:02.488Z,50.64
2022-12-11T18:52:37.309Z,51.38
2022-12-11T18:55:08.419Z,50.51
2022-12-11T18:57:38.772Z,51.55
2022-12-11T19:00:10.193Z,52.02
2022-12-11T19:02:40.657Z,52.70
2022-12-11T19:05:12.287Z,51.37
2022-12-11T19:07:42.791Z,52.33
2022-12-11T19:10:13.515Z,51.37
2022-12-11T19:12:44.193Z,51.00
2022-12-11T19:15:17.361Z,51.47
2022-12-11T19:17:49.931Z,51.11
2022-12-11T19:23:10.513Z,52.44
2022-12-11T19:25:48.170Z,52.78
2022-12-11T19:28:19.795Z,52.81
2022-12-11T19:30:51.072Z,52.44
2022-12-11T19:33:21.434Z,52.80
2022-12-11T19:35:51.723Z,53.91
2022-12-11T19:38:22.172Z,52.88
2022-12-11T19:40:52.372Z,53.59
2022-12-11T19:43:22.779Z,53.71
2022-12-11T19:45:53.146Z,52.78
2022-12-11T19:48:23.421Z,53.11
2022-12-11T19:50:53.424Z,53.22
2022-12-11T19:53:23.750Z,54.25
2022-12-11T19:55:54.966Z,53.45
2022-12-11T19:58:25.218Z,53.04
2022-12-11T20:00:56.306Z,53.98
2022-12-11T20:03:27.270Z,53.47
2022-12-11T20:06:06.753Z,53.57
2022-12-11T20:08:45.895Z,53.79
2022-12-11T20:11:19.061Z,54.56
2022-12-11T20:13:50.285Z,54.15
2022-12-11T20:16:33.644Z,56.82
2022-12-11T20:19:11.412Z,57.46
2022-12-11T20:21:42.065Z,58.64
2022-12-11T20:24:12.937Z,59.15
2022-12-11T20:26:43.229Z,60.64
2022-12-11T20:29:14.464Z,61.21
2022-12-11T20:31:46.852Z,61.95
2022-12-11T20:34:17.213Z,61.99
2022-12-11T20:36:49.939Z,62.95
2022-12-11T20:39:20.380Z,62.89
2022-12-11T20:41:50.552Z,62.80
2022-12-11T20:44:21.597Z,62.98
2022-12-11T20:46:52.392Z,63.17
2022-12-11T20:49:22.709Z,63.96
2022-12-11T20:51:53.129Z,64.21
2022-12-11T20:54:23.399Z,64.36
2022-12-11T20:56:54.051Z,64.89
2022-12-11T20:59:24.718Z,65.28
2022-12-11T21:01:55.287Z,65.75
2022-12-11T21:04:25.797Z,66.41
2022-12-11T21:06:59.207Z,66.46
2022-12-11T21:09:30.646Z,66.46
2022-12-11T21:12:02.104Z,66.73
2022-12-11T21:14:33.141Z,67.16
2022-12-11T21:17:03.407Z,67.64
2022-12-11T21:19:33.770Z,68.35
2022-12-11T21:22:04.701Z,68.19
2022-12-11T21:24:35.285Z,68.65
2022-12-11T21:27:05.525Z,68.51
2022-12-11T21:29:35.931Z,69.35
2022-12-11T21:32:06.566Z,69.31
2022-12-11T21:34:36.865Z,69.83
2022-12-11T21:37:07.192Z,70.35
2022-12-11T21:39:39.361Z,70.76
2022-12-11T21:42:09.826Z,70.46
2022-12-11T21:47:30.581Z,69.67
2022-12-11T21:50:00.871Z,69.79
2022-12-11T21:52:31.395Z,71.36
2022-12-11T21:55:01.678Z,72.00
2022-12-11T21:57:32.017Z,72.55
2022-12-11T22:00:02.379Z,71.41
2022-12-11T22:02:41.708Z,71.42
2022-12-11T22:05:12.506Z,71.13
2022-12-11T22:07:42.790Z,70.98
2022-12-11T22:10:13.067Z,72.13
2022-12-11T22:12:43.250Z,73.53
2022-12-11T22:15:13.885Z,73.57
2022-12-11T22:17:44.275Z,73.35
2022-12-11T22:20:14.741Z,72.54
2022-12-11T22:22:45.166Z,70.98
2022-12-11T22:25:34.728Z,72.01
2022-12-11T22:28:06.082Z,72.89
2022-12-11T22:30:36.462Z,73.21
2022-12-11T22:33:07.132Z,73.20
2022-12-11T22:35:39.126Z,73.24
2022-12-11T22:38:09.410Z,72.88
2022-12-11T22:40:42.891Z,73.80
2022-12-11T22:43:13.122Z,74.36
2022-12-11T22:45:43.691Z,74.40
2022-12-11T22:48:14.235Z,74.43
2022-12-11T22:50:45.154Z,74.78
2022-12-11T22:53:15.334Z,74.67
2022-12-11T22:55:45.667Z,75.44
2022-12-11T22:58:21.437Z,75.77
2022-12-11T23:00:53.476Z,76.41
2022-12-11T23:03:23.771Z,77.25
2022-12-11T23:05:54.227Z,77.87
2022-12-11T23:08:24.529Z,77.89
2022-12-11T23:10:54.914Z,77.69
2022-12-11T23:13:25.138Z,78.15
2022-12-11T23:15:55.230Z,78.76
2022-12-11T23:18:25.464Z,78.41
2022-12-11T23:20:55.673Z,78.94
2022-12-11T23:23:26.117Z,78.49
2022-12-11T23:25:57.990Z,78.82
2022-12-11T23:28:28.506Z,79.51
2022-12-11T23:30:58.896Z,79.92
2022-12-11T23:33:29.339Z,80.19
2022-12-11T23:36:00.811Z,80.43
2022-12-11T23:38:31.205Z,80.87
2022-12-11T23:41:03.706Z,80.90
2022-12-11T23:43:36.041Z,81.18
2022-12-11T23:46:19.654Z,81.34
2022-12-11T23:48:50.540Z,81.39
2022-12-11T23:51:22.367Z,81.60
2022-12-11T23:53:53.817Z,81.40
2022-12-11T23:56:26.724Z,81.05
2022-12-11T23:58:57.474Z,81.23
